Terminal Aerodrome Forecast
Issued by NWS Cleveland, OH

Home | Current Version | Previous Version | Text Only | Print | Product List | Glossary Off
Versions: 1 2 3 4 5 6 7 8 9 10 11 12 13 14 15 16 17 18 19 20

000
FTUS41 KCLE 282320
TAFMFD
TAF
KMFD 282320Z 2900/2924 31008KT P6SM SCT250
     FM290200 VRB02KT P6SM SCT120 BKN250
     FM291200 16008KT P6SM SCT045 BKN120
     FM291600 14010KT 6SM -SHRA BR OVC045
     FM292000 14012KT 5SM SHRA BR VCTS OVC025CB=

USA.gov is the U.S. government's official web portal to all federal, state and local government web resources and services.